createdAt,value
2022-12-20T00:01:52.981Z,14.00
2022-12-20T00:04:21.073Z,13.40
2022-12-20T00:06:48.917Z,13.10
2022-12-20T00:09:16.921Z,14.18
2022-12-20T00:11:44.598Z,14.38
2022-12-20T00:14:12.673Z,15.15
2022-12-20T00:16:40.328Z,14.38
2022-12-20T00:19:10.806Z,14.32
2022-12-20T00:21:38.754Z,13.85
2022-12-20T00:24:07.412Z,13.70
2022-12-20T00:26:36.393Z,13.80
2022-12-20T00:29:06.459Z,14.75
2022-12-20T00:31:35.396Z,15.30
2022-12-20T00:34:03.590Z,12.00
2022-12-20T00:36:33.156Z,13.38
2022-12-20T00:39:02.253Z,13.38
2022-12-20T00:41:33.922Z,13.20
2022-12-20T00:44:03.021Z,12.85
2022-12-20T00:46:32.055Z,13.32
2022-12-20T00:49:00.741Z,12.88
2022-12-20T00:51:31.290Z,12.73
2022-12-20T00:53:59.310Z,14.15
2022-12-20T00:56:27.058Z,14.10
2022-12-20T00:58:59.913Z,12.02
2022-12-20T01:01:32.011Z,13.10
2022-12-20T01:04:00.804Z,13.48
2022-12-20T01:06:30.033Z,13.85
2022-12-20T01:08:59.256Z,12.57
2022-12-20T01:11:34.255Z,13.48
2022-12-20T01:14:18.286Z,13.80
2022-12-20T01:16:48.270Z,12.82
2022-12-20T01:19:18.440Z,12.35
2022-12-20T01:21:46.574Z,11.68
2022-12-20T01:24:18.294Z,12.13
2022-12-20T01:26:46.918Z,12.43
2022-12-20T01:29:15.595Z,11.88
2022-12-20T01:31:44.249Z,11.20
2022-12-20T01:34:12.661Z,11.52
2022-12-20T01:36:40.985Z,8.30
2022-12-20T01:39:14.575Z,10.80
2022-12-20T01:41:45.413Z,10.40
2022-12-20T01:44:19.399Z,11.02
2022-12-20T01:46:49.958Z,10.95
2022-12-20T01:49:30.712Z,11.98
2022-12-20T01:52:08.669Z,10.63
2022-12-20T01:55:00.540Z,10.93
2022-12-20T01:57:49.670Z,10.60
2022-12-20T02:02:49.410Z,10.48
2022-12-20T02:05:21.297Z,11.68
2022-12-20T02:07:54.345Z,11.05
2022-12-20T02:10:30.166Z,11.32
2022-12-20T02:13:11.007Z,10.90
2022-12-20T02:15:58.952Z,10.63
2022-12-20T02:19:00.359Z,10.77
2022-12-20T02:21:50.853Z,12.30
2022-12-20T02:24:58.910Z,12.98
2022-12-20T02:27:41.259Z,11.50
2022-12-20T02:30:12.355Z,12.13
2022-12-20T02:32:56.612Z,11.80
2022-12-20T02:35:32.208Z,11.90
2022-12-20T02:38:35.235Z,10.35
2022-12-20T02:41:08.163Z,11.48
2022-12-20T02:44:00.527Z,11.52
2022-12-20T02:46:29.444Z,10.80
2022-12-20T02:49:03.105Z,11.63
2022-12-20T02:51:32.677Z,11.10
2022-12-20T02:54:01.799Z,11.07
2022-12-20T02:56:45.723Z,11.80
2022-12-20T02:59:50.652Z,11.88
2022-12-20T03:02:19.321Z,11.60
2022-12-20T03:04:49.999Z,10.77
2022-12-20T03:07:17.838Z,12.23
2022-12-20T03:09:46.053Z,10.95
2022-12-20T03:14:44.618Z,11.77
2022-12-20T03:17:15.169Z,11.25
2022-12-20T03:19:43.358Z,10.30
2022-12-20T03:22:11.705Z,10.82
2022-12-20T03:24:39.704Z,11.70
2022-12-20T03:27:12.259Z,12.07
2022-12-20T03:29:40.428Z,11.10
2022-12-20T03:32:08.526Z,11.70
2022-12-20T03:34:36.562Z,10.25
2022-12-20T03:37:04.675Z,10.27
2022-12-20T03:39:32.722Z,11.30
2022-12-20T03:42:00.973Z,10.73
2022-12-20T03:44:28.947Z,9.90
2022-12-20T03:46:56.679Z,11.68
2022-12-20T03:49:24.547Z,11.07
2022-12-20T03:51:53.105Z,11.50
2022-12-20T03:54:21.283Z,11.18
2022-12-20T03:57:21.280Z,10.23
2022-12-20T03:59:52.012Z,10.35
2022-12-20T04:02:21.852Z,10.13
2022-12-20T04:04:50.873Z,11.43
2022-12-20T04:07:18.705Z,11.48
2022-12-20T04:09:48.435Z,11.73
2022-12-20T04:12:16.919Z,10.68
2022-12-20T04:14:45.465Z,10.48
2022-12-20T04:17:14.142Z,10.43
2022-12-20T04:19:42.900Z,11.18
2022-12-20T04:22:10.619Z,11.45
2022-12-20T04:24:50.866Z,10.75
2022-12-20T04:27:32.381Z,10.68
2022-12-20T04:30:01.526Z,11.15
2022-12-20T04:32:29.915Z,10.82
2022-12-20T04:34:58.304Z,10.48
2022-12-20T04:37:25.908Z,11.38
2022-12-20T04:39:56.458Z,10.98
2022-12-20T04:42:27.526Z,10.93
2022-12-20T04:44:56.650Z,12.38
2022-12-20T04:47:27.739Z,11.60
2022-12-20T04:49:56.437Z,10.95
2022-12-20T04:52:47.694Z,10.73
2022-12-20T04:55:17.333Z,10.88
2022-12-20T04:57:45.553Z,9.73
2022-12-20T05:00:15.892Z,10.02
2022-12-20T05:02:47.474Z,10.30
2022-12-20T05:05:18.904Z,10.48
2022-12-20T05:07:51.884Z,10.27
2022-12-20T05:10:20.168Z,10.25
2022-12-20T05:12:49.340Z,11.15
2022-12-20T05:15:27.443Z,10.52
2022-12-20T05:17:59.564Z,10.23
2022-12-20T05:20:34.235Z,11.25
2022-12-20T05:23:21.969Z,11.13
2022-12-20T05:26:12.766Z,10.27
2022-12-20T05:28:41.166Z,12.98
2022-12-20T05:31:09.445Z,10.10
2022-12-20T05:33:37.597Z,13.05
2022-12-20T05:36:06.830Z,11.95
2022-12-20T05:38:34.434Z,11.57
2022-12-20T05:41:05.023Z,12.02
2022-12-20T05:43:33.916Z,11.30
2022-12-20T05:46:01.940Z,10.63
2022-12-20T05:48:38.350Z,10.50
2022-12-20T05:51:06.483Z,11.18
2022-12-20T05:53:41.041Z,11.75
2022-12-20T05:56:09.325Z,10.00
2022-12-20T05:58:40.374Z,11.20
2022-12-20T06:01:10.678Z,11.18
2022-12-20T06:03:40.773Z,12.05
2022-12-20T06:06:15.600Z,11.63
2022-12-20T06:08:46.225Z,11.13
2022-12-20T06:11:35.250Z,10.50
2022-12-20T06:14:09.415Z,11.35
2022-12-20T06:16:41.862Z,11.20
2022-12-20T06:19:16.027Z,11.00
2022-12-20T06:21:47.802Z,11.52
2022-12-20T06:24:18.719Z,12.15
2022-12-20T06:26:47.482Z,11.05
2022-12-20T06:29:17.596Z,12.02
2022-12-20T06:31:52.014Z,12.05
2022-12-20T06:34:20.620Z,12.90
2022-12-20T06:36:48.717Z,12.30
2022-12-20T06:39:23.546Z,11.93
2022-12-20T06:42:05.992Z,10.93
2022-12-20T06:44:35.973Z,9.20
2022-12-20T06:47:04.561Z,7.88
2022-12-20T06:49:32.487Z,10.52
2022-12-20T06:52:00.601Z,12.38
2022-12-20T06:54:43.590Z,9.95
2022-12-20T06:57:12.076Z,12.68
2022-12-20T06:59:41.022Z,12.32
2022-12-20T07:02:12.027Z,11.07
2022-12-20T07:04:40.070Z,10.45
2022-12-20T07:07:08.183Z,11.07
2022-12-20T07:09:35.784Z,10.77
2022-12-20T07:12:03.864Z,11.00
2022-12-20T07:14:31.388Z,10.73
2022-12-20T07:16:59.518Z,11.98
2022-12-20T07:19:27.162Z,10.38
2022-12-20T07:21:55.279Z,11.50
2022-12-20T07:24:23.410Z,9.32
2022-12-20T07:26:51.302Z,10.85
2022-12-20T07:29:18.917Z,11.40
2022-12-20T07:33:03.273Z,10.98
2022-12-20T07:35:31.002Z,10.30
2022-12-20T07:37:58.967Z,11.57
2022-12-20T07:40:26.557Z,12.68
2022-12-20T07:42:54.494Z,11.77
2022-12-20T07:45:22.230Z,12.25
2022-12-20T07:47:50.159Z,11.73
2022-12-20T07:50:17.891Z,10.90
2022-12-20T07:52:47.153Z,11.10
2022-12-20T07:55:15.582Z,11.40
2022-12-20T07:57:52.947Z,9.70
2022-12-20T08:00:21.018Z,10.13
2022-12-20T08:03:01.791Z,11.00
2022-12-20T08:05:53.269Z,10.30
2022-12-20T08:08:22.224Z,11.93
2022-12-20T08:10:50.843Z,12.27
2022-12-20T08:13:19.319Z,11.30
2022-12-20T08:15:47.095Z,10.43
2022-12-20T08:18:16.277Z,11.73
2022-12-20T08:20:43.878Z,11.45
2022-12-20T08:23:12.298Z,10.02
2022-12-20T08:25:42.109Z,11.02
2022-12-20T08:28:10.590Z,11.40
2022-12-20T08:30:38.532Z,12.30
2022-12-20T08:33:06.827Z,12.27
2022-12-20T08:35:34.522Z,9.43
2022-12-20T08:38:02.502Z,10.32
2022-12-20T08:40:30.086Z,10.30
2022-12-20T08:43:01.377Z,11.55
2022-12-20T08:45:32.868Z,11.25
2022-12-20T08:48:01.034Z,11.43
2022-12-20T08:50:29.517Z,10.88
2022-12-20T08:52:57.651Z,10.90
2022-12-20T08:55:29.557Z,10.98
2022-12-20T08:57:57.702Z,11.52
2022-12-20T09:00:25.583Z,10.30
2022-12-20T09:02:55.551Z,11.32
2022-12-20T09:05:23.454Z,11.65
2022-12-20T09:07:51.245Z,11.30
2022-12-20T09:10:18.927Z,12.18
2022-12-20T09:12:46.801Z,11.52
2022-12-20T09:15:15.414Z,10.65
2022-12-20T09:17:43.248Z,11.10
2022-12-20T09:20:10.967Z,9.98
2022-12-20T09:22:38.782Z,10.48
2022-12-20T09:25:07.225Z,10.32
2022-12-20T09:27:35.109Z,10.55
2022-12-20T09:30:03.302Z,9.93
2022-12-20T09:32:31.215Z,10.02
2022-12-20T09:34:58.760Z,10.73
2022-12-20T09:37:32.313Z,11.63
2022-12-20T09:40:00.104Z,10.60
2022-12-20T09:42:30.192Z,9.70
2022-12-20T09:45:08.570Z,10.63
2022-12-20T09:47:39.202Z,11.70
2022-12-20T09:50:14.893Z,11.18
2022-12-20T09:52:51.920Z,11.43
2022-12-20T09:55:43.492Z,11.00
2022-12-20T09:58:38.976Z,11.57
2022-12-20T10:01:25.385Z,10.48
2022-12-20T10:03:56.403Z,11.88
2022-12-20T10:09:50.312Z,10.80
2022-12-20T10:13:14.294Z,10.70
2022-12-20T10:15:52.590Z,11.00
2022-12-20T10:18:35.500Z,11.25
2022-12-20T10:21:31.995Z,12.23
2022-12-20T10:24:05.361Z,11.45
2022-12-20T10:26:34.426Z,10.27
2022-12-20T10:29:02.112Z,11.65
2022-12-20T10:31:30.400Z,10.32
2022-12-20T10:33:58.183Z,11.57
2022-12-20T10:36:27.061Z,9.90
2022-12-20T10:39:04.862Z,11.68
2022-12-20T10:41:45.353Z,11.00
2022-12-20T10:44:26.445Z,11.45
2022-12-20T10:47:00.990Z,12.68
2022-12-20T10:49:41.193Z,12.27
2022-12-20T10:52:11.580Z,11.40
2022-12-20T10:54:45.312Z,10.13
2022-12-20T10:57:33.668Z,11.27
2022-12-20T11:00:09.224Z,12.32
2022-12-20T11:02:42.475Z,11.05
2022-12-20T11:05:10.710Z,11.35
2022-12-20T11:08:33.531Z,11.27
2022-12-20T11:10:44.132Z,10.82
2022-12-20T11:13:26.636Z,11.75
2022-12-20T11:15:57.739Z,11.35
2022-12-20T11:18:37.649Z,12.48
2022-12-20T11:21:28.485Z,10.75
2022-12-20T11:24:29.052Z,12.60
2022-12-20T11:27:15.916Z,11.05
2022-12-20T11:30:05.118Z,10.80
2022-12-20T11:33:22.949Z,11.50
2022-12-20T11:36:02.642Z,11.30
2022-12-20T11:38:58.993Z,11.13
2022-12-20T11:41:58.699Z,12.25
2022-12-20T11:48:05.806Z,12.73
2022-12-20T11:51:26.313Z,11.57
2022-12-20T11:54:06.715Z,10.85
2022-12-20T11:56:44.689Z,12.02
2022-12-20T11:59:50.636Z,12.77
2022-12-20T12:02:54.725Z,14.35
2022-12-20T12:05:39.940Z,14.02
2022-12-20T12:08:32.001Z,13.55
2022-12-20T12:12:03.988Z,14.93
2022-12-20T12:14:15.967Z,16.55
2022-12-20T12:16:51.633Z,24.25
2022-12-20T12:19:19.321Z,22.23
2022-12-20T12:22:01.657Z,19.05
2022-12-20T12:24:39.307Z,19.33
2022-12-20T12:27:24.923Z,17.77
2022-12-20T12:29:56.450Z,15.75
2022-12-20T12:32:43.969Z,19.35
2022-12-20T12:35:47.464Z,20.90
2022-12-20T12:39:14.190Z,19.92
2022-12-20T12:42:01.201Z,17.95
2022-12-20T12:44:47.082Z,21.25
2022-12-20T12:47:36.643Z,16.40
2022-12-20T12:50:10.195Z,22.70
2022-12-20T12:52:46.315Z,18.58
2022-12-20T12:55:38.516Z,19.13
2022-12-20T12:58:24.224Z,18.50
2022-12-20T13:00:55.739Z,19.95
2022-12-20T13:03:52.115Z,17.55
2022-12-20T13:06:26.286Z,19.08
2022-12-20T13:08:59.560Z,18.80
2022-12-20T13:11:33.647Z,16.10
2022-12-20T13:14:24.758Z,14.70
2022-12-20T13:22:25.646Z,15.07
2022-12-20T13:24:57.013Z,14.20
2022-12-20T13:27:39.142Z,14.75
2022-12-20T13:30:14.545Z,13.40
2022-12-20T13:32:48.579Z,15.65
2022-12-20T13:35:25.078Z,19.25
2022-12-20T13:37:55.601Z,19.38
2022-12-20T13:40:47.930Z,18.83
2022-12-20T13:43:24.446Z,19.88
2022-12-20T13:45:56.207Z,17.33
2022-12-20T13:48:49.054Z,23.15
2022-12-20T13:51:25.923Z,19.75
2022-12-20T13:54:01.871Z,17.33
2022-12-20T13:56:33.709Z,15.55
2022-12-20T13:59:22.627Z,14.45
2022-12-20T14:01:57.817Z,14.45
2022-12-20T14:04:45.049Z,15.50
2022-12-20T14:07:18.604Z,14.85
2022-12-20T14:09:54.747Z,14.27
2022-12-20T14:12:27.543Z,14.18
2022-12-20T14:14:59.631Z,14.40
2022-12-20T14:17:32.422Z,14.27
2022-12-20T14:20:51.562Z,14.40
2022-12-20T14:23:25.192Z,14.50
2022-12-20T14:25:59.401Z,14.10
2022-12-20T14:28:46.180Z,13.10
2022-12-20T14:31:32.273Z,14.32
2022-12-20T14:34:13.526Z,14.70
2022-12-20T14:36:49.341Z,16.10
2022-12-20T14:39:34.277Z,15.70
2022-12-20T14:42:12.604Z,15.25
2022-12-20T14:44:40.551Z,14.00
2022-12-20T14:47:25.144Z,16.10
2022-12-20T14:50:00.642Z,14.10
2022-12-20T14:52:48.830Z,16.15
2022-12-20T14:55:39.712Z,15.52
2022-12-20T14:58:34.164Z,16.90
2022-12-20T15:01:27.237Z,16.17
2022-12-20T15:04:00.504Z,19.27
2022-12-20T15:06:55.196Z,16.92
2022-12-20T15:09:23.464Z,15.25
2022-12-20T15:11:52.246Z,16.00
2022-12-20T15:14:39.377Z,15.80
2022-12-20T15:17:17.176Z,14.63
2022-12-20T15:19:45.335Z,15.30
2022-12-20T15:22:20.333Z,13.93
2022-12-20T15:24:48.397Z,14.43
2022-12-20T15:27:16.491Z,15.07
2022-12-20T15:29:44.419Z,15.10
2022-12-20T15:32:29.858Z,14.30
2022-12-20T15:34:57.963Z,16.23
2022-12-20T15:37:25.634Z,14.05
2022-12-20T15:39:53.463Z,13.43
2022-12-20T15:42:23.009Z,13.85
2022-12-20T15:44:51.182Z,13.45
2022-12-20T15:47:18.734Z,12.60
2022-12-20T15:49:50.372Z,13.40
2022-12-20T15:52:24.393Z,14.35
2022-12-20T15:54:52.734Z,15.15
2022-12-20T15:57:21.217Z,14.52
2022-12-20T16:00:01.074Z,15.13
2022-12-20T16:02:39.465Z,11.63
2022-12-20T16:05:14.018Z,15.82
2022-12-20T16:07:41.799Z,15.32
2022-12-20T16:10:14.581Z,13.18
2022-12-20T16:12:42.676Z,13.85
2022-12-20T16:15:23.104Z,14.80
2022-12-20T16:17:51.196Z,15.13
2022-12-20T16:20:19.864Z,13.00
2022-12-20T16:22:48.125Z,14.60
2022-12-20T16:25:33.638Z,17.33
2022-12-20T16:28:02.606Z,15.07
2022-12-20T16:30:30.877Z,14.35
2022-12-20T16:32:59.709Z,15.00
2022-12-20T16:35:36.444Z,15.48
2022-12-20T16:38:05.856Z,13.93
2022-12-20T16:40:35.119Z,13.30
2022-12-20T16:43:02.728Z,14.43
2022-12-20T16:45:32.101Z,13.68
2022-12-20T16:47:59.949Z,13.75
2022-12-20T16:50:28.148Z,13.25
2022-12-20T16:52:56.587Z,13.68
2022-12-20T16:55:27.404Z,15.73
2022-12-20T16:57:55.202Z,13.93
2022-12-20T17:00:27.208Z,15.73
2022-12-20T17:02:55.377Z,14.00
2022-12-20T17:05:33.483Z,13.88
2022-12-20T17:08:01.472Z,14.10
2022-12-20T17:10:30.769Z,14.93
2022-12-20T17:12:58.812Z,15.93
2022-12-20T17:15:31.839Z,15.95
2022-12-20T17:17:59.457Z,16.77
2022-12-20T17:20:30.093Z,17.05
2022-12-20T17:25:53.868Z,18.98
2022-12-20T17:28:22.201Z,21.10
2022-12-20T17:30:50.654Z,22.13
2022-12-20T17:33:18.266Z,19.50
2022-12-20T17:35:46.294Z,18.63
2022-12-20T17:38:14.028Z,22.23
2022-12-20T17:40:42.018Z,20.02
2022-12-20T17:43:12.514Z,22.92
2022-12-20T17:45:41.297Z,20.02
2022-12-20T17:48:08.994Z,19.58
2022-12-20T17:50:37.230Z,18.48
2022-12-20T17:53:05.428Z,17.33
2022-12-20T17:55:33.717Z,16.52
2022-12-20T17:58:01.649Z,16.55
2022-12-20T18:00:38.791Z,17.38
2022-12-20T18:03:07.731Z,15.77
2022-12-20T18:05:39.822Z,17.20
2022-12-20T18:08:12.832Z,17.55
2022-12-20T18:10:40.739Z,19.80
2022-12-20T18:13:08.630Z,16.50
2022-12-20T18:15:39.007Z,24.50
2022-12-20T18:18:06.747Z,19.83
2022-12-20T18:20:34.582Z,18.65
2022-12-20T18:23:02.245Z,17.95
2022-12-20T18:25:30.603Z,20.38
2022-12-20T18:27:58.261Z,14.90
2022-12-20T18:30:26.322Z,16.25
2022-12-20T18:32:54.031Z,16.23
2022-12-20T18:35:22.125Z,16.20
2022-12-20T18:37:50.220Z,14.20
2022-12-20T18:40:18.747Z,13.02
2022-12-20T18:42:46.490Z,14.88
2022-12-20T18:45:14.862Z,14.88
2022-12-20T18:47:42.478Z,15.57
2022-12-20T18:50:13.341Z,14.85
2022-12-20T18:52:43.239Z,15.18
2022-12-20T18:55:15.669Z,16.00
2022-12-20T18:57:43.419Z,14.65
2022-12-20T19:00:12.791Z,15.95
2022-12-20T19:02:41.503Z,13.55
2022-12-20T19:05:09.929Z,15.18
2022-12-20T19:07:37.594Z,15.20
2022-12-20T19:10:06.202Z,13.45
2022-12-20T19:12:34.874Z,14.60
2022-12-20T19:15:02.958Z,14.82
2022-12-20T19:17:30.461Z,12.55
2022-12-20T19:19:58.353Z,16.15
2022-12-20T19:22:26.145Z,14.50
2022-12-20T19:24:55.730Z,14.38
2022-12-20T19:27:23.739Z,14.60
2022-12-20T19:29:52.996Z,17.30
2022-12-20T19:32:20.586Z,12.23
2022-12-20T19:34:48.434Z,16.10
2022-12-20T19:37:16.205Z,16.52
2022-12-20T19:39:44.165Z,18.33
2022-12-20T19:42:27.089Z,14.68
2022-12-20T19:44:55.020Z,16.63
2022-12-20T19:47:23.627Z,15.82
2022-12-20T19:49:51.528Z,16.45
2022-12-20T19:52:28.877Z,14.98
2022-12-20T19:54:57.353Z,16.77
2022-12-20T19:57:25.055Z,14.65
2022-12-20T19:59:56.186Z,15.63
2022-12-20T20:02:25.126Z,14.98
2022-12-20T20:04:53.370Z,16.35
2022-12-20T20:07:21.189Z,17.30
2022-12-20T20:09:49.042Z,14.93
2022-12-20T20:12:16.691Z,14.80
2022-12-20T20:14:44.659Z,14.38
2022-12-20T20:17:12.271Z,13.80
2022-12-20T20:19:40.769Z,14.48
2022-12-20T20:22:10.738Z,15.30
2022-12-20T20:24:38.710Z,16.33
2022-12-20T20:27:06.425Z,15.20
2022-12-20T20:29:34.400Z,14.52
2022-12-20T20:32:03.349Z,15.63
2022-12-20T20:34:31.320Z,15.30
2022-12-20T20:36:59.130Z,15.13
2022-12-20T20:39:27.159Z,16.15
2022-12-20T20:41:54.716Z,15.55
2022-12-20T20:44:22.662Z,17.08
2022-12-20T20:46:50.219Z,17.35
2022-12-20T20:49:19.830Z,17.13
2022-12-20T20:51:47.423Z,16.10
2022-12-20T20:54:15.465Z,16.30
2022-12-20T20:56:43.155Z,16.75
2022-12-20T20:59:17.301Z,16.85
2022-12-20T21:01:45.735Z,17.00
2022-12-20T21:04:13.718Z,18.50
2022-12-20T21:06:42.275Z,18.70
2022-12-20T21:09:11.554Z,17.70
2022-12-20T21:11:39.557Z,17.20
2022-12-20T21:14:08.245Z,15.48
2022-12-20T21:16:36.971Z,16.73
2022-12-20T21:19:05.908Z,17.88
2022-12-20T21:21:33.645Z,17.25
2022-12-20T21:24:01.942Z,16.98
2022-12-20T21:26:29.865Z,16.98
2022-12-20T21:28:59.917Z,18.70
2022-12-20T21:31:28.228Z,17.58
2022-12-20T21:33:57.718Z,16.40
2022-12-20T21:36:25.682Z,18.92
2022-12-20T21:38:56.937Z,17.75
2022-12-20T21:41:28.869Z,18.45
2022-12-20T21:44:01.221Z,17.40
2022-12-20T21:46:32.099Z,17.50
2022-12-20T21:49:00.845Z,19.00
2022-12-20T21:51:30.677Z,18.80
2022-12-20T21:54:00.980Z,19.50
2022-12-20T21:56:32.742Z,19.05
2022-12-20T21:59:02.551Z,17.75
2022-12-20T22:01:31.813Z,19.55
2022-12-20T22:04:05.952Z,17.40
2022-12-20T22:06:36.433Z,16.80
2022-12-20T22:09:07.484Z,17.92
2022-12-20T22:11:35.767Z,18.65
2022-12-20T22:14:03.822Z,18.20
2022-12-20T22:16:32.448Z,19.02
2022-12-20T22:19:01.679Z,19.10
2022-12-20T22:21:32.357Z,17.55
2022-12-20T22:24:03.106Z,19.17
2022-12-20T22:26:33.781Z,21.30
2022-12-20T22:29:06.072Z,18.33
2022-12-20T22:31:35.045Z,19.05
2022-12-20T22:36:31.754Z,18.30
2022-12-20T22:38:59.750Z,18.03
2022-12-20T22:41:30.857Z,18.90
2022-12-20T22:43:59.851Z,19.80
2022-12-20T22:49:18.470Z,19.75
2022-12-20T22:51:59.148Z,18.13
2022-12-20T22:54:30.637Z,17.65
2022-12-20T22:56:58.219Z,18.80
2022-12-20T22:59:26.477Z,18.73
2022-12-20T23:01:54.167Z,20.40
2022-12-20T23:04:22.363Z,18.40
2022-12-20T23:06:50.009Z,19.67
2022-12-20T23:09:17.978Z,20.30
2022-12-20T23:12:04.555Z,19.40
2022-12-20T23:14:51.064Z,18.52
2022-12-20T23:17:18.648Z,18.80
2022-12-20T23:20:05.292Z,17.65
2022-12-20T23:22:39.447Z,19.75
2022-12-20T23:25:14.645Z,17.45
2022-12-20T23:27:44.454Z,20.27
2022-12-20T23:30:17.280Z,19.35
2022-12-20T23:32:45.244Z,16.08
2022-12-20T23:35:16.745Z,18.25
2022-12-20T23:37:46.054Z,19.30
2022-12-20T23:42:44.976Z,18.55
2022-12-20T23:45:13.319Z,16.30
2022-12-20T23:47:41.053Z,17.38
2022-12-20T23:50:09.471Z,19.33
2022-12-20T23:52:37.018Z,18.42
2022-12-20T23:55:05.916Z,17.40
2022-12-20T23:57:33.540Z,17.08
